PWSweather.com
Personal Weather Stations
Station Observations
PWSLORIS
The Farm At Fox Bay, Loris, SC 29569

The Farm At Fox BayLoris, SC 29569

Lat: 34.067097, Lon: -78.86907

Elevation: 108

Station Type: Davis Vantage Pro2 with 24 hr. FARS and solar

http://www.lorisweather.com

High Low Average
Temperature 86.7°F30.4°C 60.2°F15.7°C 73.6°F23.1°C
Dew Point 69.6°F20.9°C 58.0°F14.4°C 62.9°F17.2°C
Winds 6.9 mph 11.1 kmh Calm Calm 1.0 mph E1.6 kmh E
Wind Gusts 12.7 mph20.4 kmh -- 2.0 mph3.2 kmh
Humidity 97% 39% 73%
Pressure 30.09 in1019.0 mb 30.03 in1016.9 mb -
Precipitation 0.00 in0.0 mm - -
Hour Temp Dew Point Humidity Winds Wind Gusts Pressure Precip Precip Rate Daily Precip Total
12:00 AM 63.8°F17.7°C 62.0°F16.7°C 94% Calm Calm -- 30.07 in1018.3 mb - 0.00 in0.0 mm 0.00 in0.0 mm
12:15 AM 64.0°F17.8°C 62.2°F16.8°C 94% Calm Calm -- 30.07 in1018.3 mb - 0.00 in0.0 mm 0.00 in0.0 mm
12:30 AM 64.4°F18.0°C 62.6°F17.0°C 94% Calm Calm -- 30.07 in1018.3 mb - 0.00 in0.0 mm 0.00 in0.0 mm
12:45 AM 64.4°F18.0°C 62.3°F16.8°C 93% Calm Calm -- 30.07 in1018.3 mb - 0.00 in0.0 mm 0.00 in0.0 mm
01:00 AM 63.9°F17.7°C 62.1°F16.7°C 94% Calm Calm -- 30.06 in1017.9 mb - 0.00 in0.0 mm 0.00 in0.0 mm
01:15 AM 63.5°F17.5°C 61.7°F16.5°C 94% Calm Calm -- 30.06 in1017.9 mb - 0.00 in0.0 mm 0.00 in0.0 mm
01:30 AM 63.3°F17.4°C 61.8°F16.6°C 95% Calm Calm -- 30.06 in1017.9 mb - 0.00 in0.0 mm 0.00 in0.0 mm
01:45 AM 62.8°F17.1°C 61.3°F16.3°C 95% Calm Calm -- 30.06 in1017.9 mb - 0.00 in0.0 mm 0.00 in0.0 mm
02:00 AM 62.5°F16.9°C 61.0°F16.1°C 95% Calm Calm -- 30.05 in1017.6 mb - 0.00 in0.0 mm 0.00 in0.0 mm
02:15 AM 62.3°F16.8°C 61.1°F16.2°C 96% Calm Calm -- 30.05 in1017.6 mb - 0.00 in0.0 mm 0.00 in0.0 mm
02:30 AM 61.8°F16.6°C 60.6°F15.9°C 96% Calm Calm -- 30.04 in1017.3 mb - 0.00 in0.0 mm 0.00 in0.0 mm
02:45 AM 61.8°F16.6°C 60.6°F15.9°C 96% Calm Calm -- 30.04 in1017.3 mb - 0.00 in0.0 mm 0.00 in0.0 mm
03:00 AM 61.6°F16.4°C 60.5°F15.8°C 96% Calm Calm -- 30.04 in1017.3 mb - 0.00 in0.0 mm 0.00 in0.0 mm
03:15 AM 61.3°F16.3°C 60.2°F15.7°C 96% Calm Calm -- 30.03 in1016.9 mb - 0.00 in0.0 mm 0.00 in0.0 mm
03:30 AM 61.0°F16.1°C 59.9°F15.5°C 96% Calm Calm -- 30.04 in1017.3 mb - 0.00 in0.0 mm 0.00 in0.0 mm
03:45 AM 60.7°F15.9°C 59.8°F15.4°C 97% Calm Calm -- 30.04 in1017.3 mb - 0.00 in0.0 mm 0.00 in0.0 mm
04:00 AM 60.4°F15.8°C 59.3°F15.2°C 96% Calm Calm -- 30.04 in1017.3 mb - 0.00 in0.0 mm 0.00 in0.0 mm
04:15 AM 60.7°F15.9°C 59.8°F15.4°C 97% Calm Calm -- 30.04 in1017.3 mb - 0.00 in0.0 mm 0.00 in0.0 mm
04:30 AM 60.8°F16.0°C 59.9°F15.5°C 97% Calm Calm -- 30.04 in1017.3 mb - 0.00 in0.0 mm 0.00 in0.0 mm
04:45 AM 60.6°F15.9°C 59.7°F15.4°C 97% Calm Calm -- 30.04 in1017.3 mb - 0.00 in0.0 mm 0.00 in0.0 mm
05:00 AM 60.2°F15.7°C 59.3°F15.2°C 97% Calm Calm -- 30.05 in1017.6 mb - 0.00 in0.0 mm 0.00 in0.0 mm
05:15 AM 60.2°F15.7°C 59.3°F15.2°C 97% Calm Calm -- 30.05 in1017.6 mb - 0.00 in0.0 mm 0.00 in0.0 mm
05:30 AM 60.9°F16.1°C 60.0°F15.6°C 97% Calm Calm -- 30.05 in1017.6 mb - 0.00 in0.0 mm 0.00 in0.0 mm
05:45 AM 61.2°F16.2°C 60.4°F15.8°C 97% Calm Calm -- 30.05 in1017.6 mb - 0.00 in0.0 mm 0.00 in0.0 mm
06:00 AM 61.7°F16.5°C 60.8°F16.0°C 97% Calm Calm -- 30.05 in1017.6 mb - 0.00 in0.0 mm 0.00 in0.0 mm
06:15 AM 62.7°F17.1°C 61.8°F16.6°C 97% Calm Calm -- 30.06 in1017.9 mb - 0.00 in0.0 mm 0.00 in0.0 mm
06:30 AM 63.7°F17.6°C 62.8°F17.1°C 97% Calm Calm -- 30.06 in1017.9 mb - 0.00 in0.0 mm 0.00 in0.0 mm
06:45 AM 65.2°F18.4°C 63.8°F17.7°C 95% Calm Calm -- 30.07 in1018.3 mb - 0.00 in0.0 mm 0.00 in0.0 mm
07:00 AM 66.4°F19.1°C 63.7°F17.6°C 91% Calm Calm -- 30.07 in1018.3 mb - 0.00 in0.0 mm 0.00 in0.0 mm
07:15 AM 67.7°F19.8°C 64.0°F17.8°C 88% 2.3 mph E3.7 kmh E 5.8 mph9.3 kmh 30.08 in1018.6 mb - 0.00 in0.0 mm 0.00 in0.0 mm
07:30 AM 69.0°F20.6°C 64.6°F18.1°C 86% 2.3 mph NE3.7 kmh NE 1.2 mph1.9 kmh 30.08 in1018.6 mb - 0.00 in0.0 mm 0.00 in0.0 mm
07:45 AM 70.4°F21.3°C 65.0°F18.3°C 83% 3.5 mph NE5.6 kmh NE 3.5 mph5.6 kmh 30.08 in1018.6 mb - 0.00 in0.0 mm 0.00 in0.0 mm
08:00 AM 71.8°F22.1°C 64.9°F18.3°C 79% 4.6 mph NE7.4 kmh NE 4.6 mph7.4 kmh 30.08 in1018.6 mb - 0.00 in0.0 mm 0.00 in0.0 mm
08:15 AM 73.1°F22.8°C 65.1°F18.4°C 76% 3.5 mph ENE5.6 kmh ENE 6.9 mph11.1 kmh 30.08 in1018.6 mb - 0.00 in0.0 mm 0.00 in0.0 mm
08:30 AM 74.6°F23.7°C 65.4°F18.6°C 73% 3.5 mph ENE5.6 kmh ENE 4.6 mph7.4 kmh 30.08 in1018.6 mb - 0.00 in0.0 mm 0.00 in0.0 mm
08:45 AM 75.4°F24.1°C 64.5°F18.1°C 69% 5.8 mph NE9.3 kmh NE 8.1 mph13.0 kmh 30.08 in1018.6 mb - 0.00 in0.0 mm 0.00 in0.0 mm
09:00 AM 76.6°F24.8°C 64.8°F18.2°C 67% 6.9 mph E11.1 kmh E 9.2 mph14.8 kmh 30.09 in1019.0 mb - 0.00 in0.0 mm 0.00 in0.0 mm
09:15 AM 77.2°F25.1°C 64.5°F18.1°C 65% 3.5 mph N5.6 kmh N 4.6 mph7.4 kmh 30.09 in1019.0 mb - 0.00 in0.0 mm 0.00 in0.0 mm
09:30 AM 78.1°F25.6°C 63.6°F17.6°C 61% 4.6 mph NNE7.4 kmh NNE 9.2 mph14.8 kmh 30.09 in1019.0 mb - 0.00 in0.0 mm 0.00 in0.0 mm
09:45 AM 78.6°F25.9°C 64.0°F17.8°C 61% 4.6 mph NE7.4 kmh NE 5.8 mph9.3 kmh 30.09 in1019.0 mb - 0.00 in0.0 mm 0.00 in0.0 mm
10:00 AM 78.9°F26.1°C 62.4°F16.9°C 57% 5.8 mph ENE9.3 kmh ENE 8.1 mph13.0 kmh 30.09 in1019.0 mb - 0.00 in0.0 mm 0.00 in0.0 mm
10:15 AM 79.6°F26.4°C 63.0°F17.2°C 57% 3.5 mph ENE5.6 kmh ENE 12.7 mph20.4 kmh 30.08 in1018.6 mb - 0.00 in0.0 mm 0.00 in0.0 mm
10:30 AM 80.0°F26.7°C 62.4°F16.9°C 55% 6.9 mph NE11.1 kmh NE 10.4 mph16.7 kmh 30.08 in1018.6 mb - 0.00 in0.0 mm 0.00 in0.0 mm
10:45 AM 80.8°F27.1°C 64.2°F17.9°C 57% Calm Calm 3.5 mph5.6 kmh 30.08 in1018.6 mb - 0.00 in0.0 mm 0.00 in0.0 mm
11:00 AM 80.9°F27.2°C 62.7°F17.1°C 54% 4.6 mph SE7.4 kmh SE 8.1 mph13.0 kmh 30.08 in1018.6 mb - 0.00 in0.0 mm 0.00 in0.0 mm
11:15 AM 81.4°F27.4°C 63.2°F17.3°C 54% 6.9 mph NE11.1 kmh NE 11.5 mph18.5 kmh 30.08 in1018.6 mb - 0.00 in0.0 mm 0.00 in0.0 mm
11:30 AM 81.9°F27.7°C 63.1°F17.3°C 53% 1.2 mph ESE1.9 kmh ESE -- 30.07 in1018.3 mb - 0.00 in0.0 mm 0.00 in0.0 mm
11:45 AM 82.7°F28.2°C 62.7°F17.1°C 51% 2.3 mph N3.7 kmh N 4.6 mph7.4 kmh 30.07 in1018.3 mb - 0.00 in0.0 mm 0.00 in0.0 mm
12:00 PM 82.9°F28.3°C 63.5°F17.5°C 52% 3.5 mph E5.6 kmh E 4.6 mph7.4 kmh 30.07 in1018.3 mb - 0.00 in0.0 mm 0.00 in0.0 mm
12:15 PM 83.1°F28.4°C 61.4°F16.3°C 48% 3.5 mph ENE5.6 kmh ENE 5.8 mph9.3 kmh 30.07 in1018.3 mb - 0.00 in0.0 mm 0.00 in0.0 mm
12:30 PM 83.8°F28.8°C 60.8°F16.0°C 46% 6.9 mph NNE11.1 kmh NNE 8.1 mph13.0 kmh 30.07 in1018.3 mb - 0.00 in0.0 mm 0.00 in0.0 mm
12:45 PM 84.1°F28.9°C 62.3°F16.8°C 48% 3.5 mph NE5.6 kmh NE 9.2 mph14.8 kmh 30.06 in1017.9 mb - 0.00 in0.0 mm 0.00 in0.0 mm
01:00 PM 84.3°F29.1°C 60.6°F15.9°C 45% 5.8 mph ENE9.3 kmh ENE 6.9 mph11.1 kmh 30.06 in1017.9 mb - 0.00 in0.0 mm 0.00 in0.0 mm
01:15 PM 84.6°F29.2°C 61.5°F16.4°C 46% 2.3 mph N3.7 kmh N 4.6 mph7.4 kmh 30.06 in1017.9 mb - 0.00 in0.0 mm 0.00 in0.0 mm
01:30 PM 84.8°F29.3°C 62.3°F16.8°C 47% 2.3 mph E3.7 kmh E 1.2 mph1.9 kmh 30.06 in1017.9 mb - 0.00 in0.0 mm 0.00 in0.0 mm
01:45 PM 85.0°F29.4°C 61.2°F16.2°C 45% Calm Calm -- 30.05 in1017.6 mb - 0.00 in0.0 mm 0.00 in0.0 mm
02:00 PM 85.2°F29.6°C 60.2°F15.7°C 43% 1.2 mph E1.9 kmh E 1.2 mph1.9 kmh 30.05 in1017.6 mb - 0.00 in0.0 mm 0.00 in0.0 mm
02:15 PM 85.4°F29.7°C 61.0°F16.1°C 44% 1.2 mph E1.9 kmh E 2.3 mph3.7 kmh 30.04 in1017.3 mb - 0.00 in0.0 mm 0.00 in0.0 mm
02:30 PM 85.8°F29.9°C 58.0°F14.4°C 39% 2.3 mph NNE3.7 kmh NNE 5.8 mph9.3 kmh 30.05 in1017.6 mb - 0.00 in0.0 mm 0.00 in0.0 mm
02:45 PM 85.6°F29.8°C 58.5°F14.7°C 40% Calm Calm -- 30.05 in1017.6 mb - 0.00 in0.0 mm 0.00 in0.0 mm
03:00 PM 86.2°F30.1°C 60.4°F15.8°C 42% 2.3 mph NNE3.7 kmh NNE 3.5 mph5.6 kmh 30.04 in1017.3 mb - 0.00 in0.0 mm 0.00 in0.0 mm
03:15 PM 86.5°F30.3°C 59.3°F15.2°C 40% 2.3 mph NE3.7 kmh NE 3.5 mph5.6 kmh 30.04 in1017.3 mb - 0.00 in0.0 mm 0.00 in0.0 mm
03:30 PM 86.5°F30.3°C 58.6°F14.8°C 39% 1.2 mph NE1.9 kmh NE 3.5 mph5.6 kmh 30.04 in1017.3 mb - 0.00 in0.0 mm 0.00 in0.0 mm
03:45 PM 86.7°F30.4°C 59.5°F15.3°C 40% Calm Calm -- 30.04 in1017.3 mb - 0.00 in0.0 mm 0.00 in0.0 mm
04:00 PM 86.5°F30.3°C 60.0°F15.6°C 41% 1.2 mph NE1.9 kmh NE 3.5 mph5.6 kmh 30.04 in1017.3 mb - 0.00 in0.0 mm 0.00 in0.0 mm
04:15 PM 86.4°F30.2°C 59.2°F15.1°C 40% Calm Calm -- 30.03 in1016.9 mb - 0.00 in0.0 mm 0.00 in0.0 mm
04:30 PM 86.1°F30.1°C 60.3°F15.7°C 42% Calm Calm 3.5 mph5.6 kmh 30.03 in1016.9 mb - 0.00 in0.0 mm 0.00 in0.0 mm
04:45 PM 86.0°F30.0°C 60.3°F15.7°C 42% 1.2 mph E1.9 kmh E 4.6 mph7.4 kmh 30.03 in1016.9 mb - 0.00 in0.0 mm 0.00 in0.0 mm
05:00 PM 86.1°F30.1°C 59.0°F15.0°C 40% Calm Calm -- 30.03 in1016.9 mb - 0.00 in0.0 mm 0.00 in0.0 mm
05:15 PM 86.3°F30.2°C 60.5°F15.8°C 42% 2.3 mph E3.7 kmh E 3.5 mph5.6 kmh 30.03 in1016.9 mb - 0.00 in0.0 mm 0.00 in0.0 mm
05:30 PM 85.9°F29.9°C 60.8°F16.0°C 43% 1.2 mph NE1.9 kmh NE 2.3 mph3.7 kmh 30.03 in1016.9 mb - 0.00 in0.0 mm 0.00 in0.0 mm
05:45 PM 85.5°F29.7°C 61.1°F16.2°C 44% Calm Calm -- 30.03 in1016.9 mb - 0.00 in0.0 mm 0.00 in0.0 mm
06:00 PM 84.7°F29.3°C 62.2°F16.8°C 47% Calm Calm -- 30.03 in1016.9 mb - 0.00 in0.0 mm 0.00 in0.0 mm
06:15 PM 82.8°F28.2°C 62.9°F17.2°C 51% Calm Calm -- 30.03 in1016.9 mb - 0.00 in0.0 mm 0.00 in0.0 mm
06:30 PM 79.4°F26.3°C 62.9°F17.2°C 57% Calm Calm -- 30.04 in1017.3 mb - 0.00 in0.0 mm 0.00 in0.0 mm
06:45 PM 79.0°F26.1°C 67.9°F19.9°C 69% Calm Calm 2.3 mph3.7 kmh 30.04 in1017.3 mb - 0.00 in0.0 mm 0.00 in0.0 mm
07:00 PM 79.4°F26.3°C 69.6°F20.9°C 72% Calm Calm 2.3 mph3.7 kmh 30.04 in1017.3 mb - 0.00 in0.0 mm 0.00 in0.0 mm
07:15 PM 78.1°F25.6°C 69.1°F20.6°C 74% 1.2 mph S1.9 kmh S 3.5 mph5.6 kmh 30.05 in1017.6 mb - 0.00 in0.0 mm 0.00 in0.0 mm
07:30 PM 77.0°F25.0°C 69.3°F20.7°C 77% Calm Calm -- 30.05 in1017.6 mb - 0.00 in0.0 mm 0.00 in0.0 mm
07:45 PM 74.9°F23.8°C 69.0°F20.6°C 82% Calm Calm -- 30.05 in1017.6 mb - 0.00 in0.0 mm 0.00 in0.0 mm
08:00 PM 74.2°F23.4°C 68.7°F20.4°C 83% Calm Calm -- 30.05 in1017.6 mb - 0.00 in0.0 mm 0.00 in0.0 mm
08:15 PM 73.8°F23.2°C 68.7°F20.4°C 84% Calm Calm -- 30.05 in1017.6 mb - 0.00 in0.0 mm 0.00 in0.0 mm
08:30 PM 73.4°F23.0°C 68.3°F20.2°C 84% Calm Calm -- 30.05 in1017.6 mb - 0.00 in0.0 mm 0.00 in0.0 mm
08:45 PM 72.3°F22.4°C 67.9°F19.9°C 86% Calm Calm -- 30.06 in1017.9 mb - 0.00 in0.0 mm 0.00 in0.0 mm
09:00 PM 71.4°F21.9°C 67.3°F19.6°C 87% Calm Calm -- 30.06 in1017.9 mb - 0.00 in0.0 mm 0.00 in0.0 mm
09:15 PM 70.6°F21.4°C 67.2°F19.6°C 89% Calm Calm -- 30.06 in1017.9 mb - 0.00 in0.0 mm 0.00 in0.0 mm
09:30 PM 69.8°F21.0°C 66.8°F19.3°C 90% Calm Calm -- 30.06 in1017.9 mb - 0.00 in0.0 mm 0.00 in0.0 mm
09:45 PM 69.3°F20.7°C 66.6°F19.2°C 91% Calm Calm -- 30.07 in1018.3 mb - 0.00 in0.0 mm 0.00 in0.0 mm
10:00 PM 69.0°F20.6°C 66.6°F19.2°C 92% Calm Calm -- 30.07 in1018.3 mb - 0.00 in0.0 mm 0.00 in0.0 mm
10:15 PM 68.6°F20.3°C 66.2°F19.0°C 92% Calm Calm -- 30.08 in1018.6 mb - 0.00 in0.0 mm 0.00 in0.0 mm
10:30 PM 68.3°F20.2°C 66.2°F19.0°C 93% Calm Calm -- 30.08 in1018.6 mb - 0.00 in0.0 mm 0.00 in0.0 mm
10:45 PM 68.1°F20.1°C 66.0°F18.9°C 93% Calm Calm -- 30.07 in1018.3 mb - 0.00 in0.0 mm 0.00 in0.0 mm
11:00 PM 67.8°F19.9°C 65.7°F18.7°C 93% Calm Calm -- 30.07 in1018.3 mb - 0.00 in0.0 mm 0.00 in0.0 mm
11:15 PM 67.3°F19.6°C 65.2°F18.4°C 93% Calm Calm -- 30.08 in1018.6 mb - 0.00 in0.0 mm 0.00 in0.0 mm
11:30 PM 66.8°F19.3°C 65.0°F18.3°C 94% Calm Calm -- 30.07 in1018.3 mb - 0.00 in0.0 mm 0.00 in0.0 mm
11:45 PM 66.7°F19.3°C 64.9°F18.3°C 94% Calm Calm -- 30.08 in1018.6 mb - 0.00 in0.0 mm 0.00 in0.0 mm